sensor_id;sensor_type;location;lat;lon;timestamp;pressure;altitude;pressure_sealevel;temperature
58307;BMP280;44116;50.884;4.768;2023-07-13T00:01:54;101070.0;;;14.9
58307;BMP280;44116;50.884;4.768;2023-07-13T00:03:54;101060.0;;;15.1
58307;BMP280;44116;50.884;4.768;2023-07-13T00:09:53;101050.0;;;14.9
58307;BMP280;44116;50.884;4.768;2023-07-13T00:11:54;101060.0;;;14.9
58307;BMP280;44116;50.884;4.768;2023-07-13T00:13:53;101050.0;;;14.8
58307;BMP280;44116;50.884;4.768;2023-07-13T00:15:53;101050.0;;;14.9
58307;BMP280;44116;50.884;4.768;2023-07-13T00:17:53;101040.0;;;15.0
58307;BMP280;44116;50.884;4.768;2023-07-13T00:19:53;101040.0;;;15.1
58307;BMP280;44116;50.884;4.768;2023-07-13T00:21:53;101050.0;;;14.8
58307;BMP280;44116;50.884;4.768;2023-07-13T00:23:53;101040.0;;;14.8
58307;BMP280;44116;50.884;4.768;2023-07-13T00:25:53;101040.0;;;14.8
58307;BMP280;44116;50.884;4.768;2023-07-13T00:27:53;101060.0;;;15.0
58307;BMP280;44116;50.884;4.768;2023-07-13T00:29:53;101040.0;;;14.8
58307;BMP280;44116;50.884;4.768;2023-07-13T00:31:53;101040.0;;;15.0
58307;BMP280;44116;50.884;4.768;2023-07-13T00:33:52;101040.0;;;14.8
58307;BMP280;44116;50.884;4.768;2023-07-13T00:35:53;101040.0;;;14.7
58307;BMP280;44116;50.884;4.768;2023-07-13T00:37:52;101040.0;;;14.8
58307;BMP280;44116;50.884;4.768;2023-07-13T00:41:52;101040.0;;;14.8
58307;BMP280;44116;50.884;4.768;2023-07-13T00:43:52;101040.0;;;14.9
58307;BMP280;44116;50.884;4.768;2023-07-13T00:47:52;101040.0;;;14.8
58307;BMP280;44116;50.884;4.768;2023-07-13T00:51:53;101030.0;;;14.9
58307;BMP280;44116;50.884;4.768;2023-07-13T00:53:52;101040.0;;;15.0
58307;BMP280;44116;50.884;4.768;2023-07-13T00:55:53;101040.0;;;14.9
58307;BMP280;44116;50.884;4.768;2023-07-13T00:57:52;101030.0;;;14.9
58307;BMP280;44116;50.884;4.768;2023-07-13T00:59:54;101040.0;;;15.1
58307;BMP280;44116;50.884;4.768;2023-07-13T01:03:51;101040.0;;;15.0
58307;BMP280;44116;50.884;4.768;2023-07-13T01:05:51;101040.0;;;14.8
58307;BMP280;44116;50.884;4.768;2023-07-13T01:07:51;101050.0;;;15.0
58307;BMP280;44116;50.884;4.768;2023-07-13T01:09:51;101060.0;;;14.9
58307;BMP280;44116;50.884;4.768;2023-07-13T01:11:51;101060.0;;;14.7
58307;BMP280;44116;50.884;4.768;2023-07-13T01:13:52;101060.0;;;14.8
58307;BMP280;44116;50.884;4.768;2023-07-13T01:15:51;101060.0;;;14.7
58307;BMP280;44116;50.884;4.768;2023-07-13T01:17:51;101070.0;;;14.8
58307;BMP280;44116;50.884;4.768;2023-07-13T01:21:51;101070.0;;;14.5
58307;BMP280;44116;50.884;4.768;2023-07-13T01:23:51;101070.0;;;14.5
58307;BMP280;44116;50.884;4.768;2023-07-13T01:25:51;101070.0;;;14.6
58307;BMP280;44116;50.884;4.768;2023-07-13T01:27:52;101070.0;;;14.6
58307;BMP280;44116;50.884;4.768;2023-07-13T01:29:51;101060.0;;;14.5
58307;BMP280;44116;50.884;4.768;2023-07-13T01:31:50;101070.0;;;14.6
58307;BMP280;44116;50.884;4.768;2023-07-13T01:33:51;101070.0;;;14.7
58307;BMP280;44116;50.884;4.768;2023-07-13T01:35:50;101060.0;;;14.6
58307;BMP280;44116;50.884;4.768;2023-07-13T01:37:50;101070.0;;;14.5
58307;BMP280;44116;50.884;4.768;2023-07-13T01:39:50;101080.0;;;14.3
58307;BMP280;44116;50.884;4.768;2023-07-13T01:43:50;101070.0;;;14.4
58307;BMP280;44116;50.884;4.768;2023-07-13T01:45:50;101060.0;;;14.4
58307;BMP280;44116;50.884;4.768;2023-07-13T01:47:50;101070.0;;;14.5
58307;BMP280;44116;50.884;4.768;2023-07-13T01:49:50;101070.0;;;14.6
58307;BMP280;44116;50.884;4.768;2023-07-13T01:51:50;101060.0;;;14.4
58307;BMP280;44116;50.884;4.768;2023-07-13T01:53:49;101060.0;;;14.3
58307;BMP280;44116;50.884;4.768;2023-07-13T01:57:49;101040.0;;;14.5
58307;BMP280;44116;50.884;4.768;2023-07-13T01:59:49;101060.0;;;14.5
58307;BMP280;44116;50.884;4.768;2023-07-13T02:01:49;101060.0;;;14.4
58307;BMP280;44116;50.884;4.768;2023-07-13T02:03:49;101050.0;;;14.3
58307;BMP280;44116;50.884;4.768;2023-07-13T02:05:49;101060.0;;;14.3
58307;BMP280;44116;50.884;4.768;2023-07-13T02:07:49;101070.0;;;14.2
58307;BMP280;44116;50.884;4.768;2023-07-13T02:09:49;101060.0;;;14.3
58307;BMP280;44116;50.884;4.768;2023-07-13T02:11:49;101050.0;;;14.4
58307;BMP280;44116;50.884;4.768;2023-07-13T02:13:49;101060.0;;;14.2
58307;BMP280;44116;50.884;4.768;2023-07-13T02:15:49;101050.0;;;14.5
58307;BMP280;44116;50.884;4.768;2023-07-13T02:17:48;101060.0;;;14.4
58307;BMP280;44116;50.884;4.768;2023-07-13T02:19:48;101060.0;;;14.6
58307;BMP280;44116;50.884;4.768;2023-07-13T02:21:48;101060.0;;;14.4
58307;BMP280;44116;50.884;4.768;2023-07-13T02:23:48;101060.0;;;14.4
58307;BMP280;44116;50.884;4.768;2023-07-13T02:25:48;101060.0;;;14.5
58307;BMP280;44116;50.884;4.768;2023-07-13T02:27:48;101050.0;;;14.5
58307;BMP280;44116;50.884;4.768;2023-07-13T02:29:48;101060.0;;;14.4
58307;BMP280;44116;50.884;4.768;2023-07-13T02:31:47;101060.0;;;14.4
58307;BMP280;44116;50.884;4.768;2023-07-13T02:33:47;101060.0;;;14.5
58307;BMP280;44116;50.884;4.768;2023-07-13T02:35:47;101050.0;;;14.4
58307;BMP280;44116;50.884;4.768;2023-07-13T02:37:47;101050.0;;;14.6
58307;BMP280;44116;50.884;4.768;2023-07-13T02:39:47;101050.0;;;14.5
58307;BMP280;44116;50.884;4.768;2023-07-13T02:41:47;101060.0;;;14.6
58307;BMP280;44116;50.884;4.768;2023-07-13T02:43:47;101060.0;;;14.7
58307;BMP280;44116;50.884;4.768;2023-07-13T02:47:47;101060.0;;;14.8
58307;BMP280;44116;50.884;4.768;2023-07-13T02:49:47;101060.0;;;14.8
58307;BMP280;44116;50.884;4.768;2023-07-13T02:51:47;101060.0;;;14.8
58307;BMP280;44116;50.884;4.768;2023-07-13T02:53:46;101060.0;;;14.8
58307;BMP280;44116;50.884;4.768;2023-07-13T02:55:46;101060.0;;;14.8
58307;BMP280;44116;50.884;4.768;2023-07-13T02:57:46;101060.0;;;14.9
58307;BMP280;44116;50.884;4.768;2023-07-13T03:01:46;101060.0;;;14.8
58307;BMP280;44116;50.884;4.768;2023-07-13T03:03:46;101070.0;;;14.9
58307;BMP280;44116;50.884;4.768;2023-07-13T03:05:46;101060.0;;;14.7
58307;BMP280;44116;50.884;4.768;2023-07-13T03:09:45;101070.0;;;14.9
58307;BMP280;44116;50.884;4.768;2023-07-13T03:13:46;101070.0;;;14.9
58307;BMP280;44116;50.884;4.768;2023-07-13T03:15:48;101080.0;;;14.9
58307;BMP280;44116;50.884;4.768;2023-07-13T03:19:45;101070.0;;;14.7
58307;BMP280;44116;50.884;4.768;2023-07-13T03:21:45;101070.0;;;14.8
58307;BMP280;44116;50.884;4.768;2023-07-13T03:23:45;101080.0;;;15.1
58307;BMP280;44116;50.884;4.768;2023-07-13T03:25:45;101070.0;;;15.1
58307;BMP280;44116;50.884;4.768;2023-07-13T03:27:45;101080.0;;;15.1
58307;BMP280;44116;50.884;4.768;2023-07-13T03:29:44;101070.0;;;15.3
58307;BMP280;44116;50.884;4.768;2023-07-13T03:31:44;101080.0;;;15.2
58307;BMP280;44116;50.884;4.768;2023-07-13T03:33:44;101080.0;;;14.9
58307;BMP280;44116;50.884;4.768;2023-07-13T03:35:44;101060.0;;;15.4
58307;BMP280;44116;50.884;4.768;2023-07-13T03:37:44;101070.0;;;14.9
58307;BMP280;44116;50.884;4.768;2023-07-13T03:41:44;101070.0;;;15.2
58307;BMP280;44116;50.884;4.768;2023-07-13T03:43:44;101070.0;;;15.1
58307;BMP280;44116;50.884;4.768;2023-07-13T03:45:44;101070.0;;;15.1
58307;BMP280;44116;50.884;4.768;2023-07-13T03:47:44;101090.0;;;15.1
58307;BMP280;44116;50.884;4.768;2023-07-13T03:51:43;101100.0;;;15.0
58307;BMP280;44116;50.884;4.768;2023-07-13T03:53:44;101090.0;;;14.7
58307;BMP280;44116;50.884;4.768;2023-07-13T03:55:44;101090.0;;;14.7
58307;BMP280;44116;50.884;4.768;2023-07-13T03:57:43;101090.0;;;14.8
58307;BMP280;44116;50.884;4.768;2023-07-13T03:59:43;101090.0;;;15.0
58307;BMP280;44116;50.884;4.768;2023-07-13T04:01:43;101090.0;;;14.7
58307;BMP280;44116;50.884;4.768;2023-07-13T04:07:43;101100.0;;;14.9
58307;BMP280;44116;50.884;4.768;2023-07-13T04:09:43;101090.0;;;15.0
58307;BMP280;44116;50.884;4.768;2023-07-13T04:13:42;101100.0;;;15.1
58307;BMP280;44116;50.884;4.768;2023-07-13T04:15:42;101110.0;;;15.1
58307;BMP280;44116;50.884;4.768;2023-07-13T04:17:42;101110.0;;;15.0
58307;BMP280;44116;50.884;4.768;2023-07-13T04:19:42;101100.0;;;15.1
58307;BMP280;44116;50.884;4.768;2023-07-13T04:21:42;101090.0;;;14.9
58307;BMP280;44116;50.884;4.768;2023-07-13T04:25:43;101110.0;;;15.1
58307;BMP280;44116;50.884;4.768;2023-07-13T04:27:42;101110.0;;;15.1
58307;BMP280;44116;50.884;4.768;2023-07-13T04:29:42;101110.0;;;15.1
58307;BMP280;44116;50.884;4.768;2023-07-13T04:35:41;101110.0;;;15.0
58307;BMP280;44116;50.884;4.768;2023-07-13T04:37:41;101110.0;;;15.1
58307;BMP280;44116;50.884;4.768;2023-07-13T04:39:41;101110.0;;;15.2
58307;BMP280;44116;50.884;4.768;2023-07-13T04:41:41;101110.0;;;15.1
58307;BMP280;44116;50.884;4.768;2023-07-13T04:43:41;101110.0;;;15.1
58307;BMP280;44116;50.884;4.768;2023-07-13T04:45:41;101110.0;;;15.1
58307;BMP280;44116;50.884;4.768;2023-07-13T04:47:41;101120.0;;;15.3
58307;BMP280;44116;50.884;4.768;2023-07-13T04:49:41;101120.0;;;15.2
58307;BMP280;44116;50.884;4.768;2023-07-13T04:51:40;101110.0;;;15.3
58307;BMP280;44116;50.884;4.768;2023-07-13T04:53:40;101120.0;;;15.4
58307;BMP280;44116;50.884;4.768;2023-07-13T04:55:40;101120.0;;;15.4
58307;BMP280;44116;50.884;4.768;2023-07-13T04:59:40;101130.0;;;15.4
58307;BMP280;44116;50.884;4.768;2023-07-13T05:05:40;101130.0;;;15.3
58307;BMP280;44116;50.884;4.768;2023-07-13T05:07:40;101140.0;;;15.5
58307;BMP280;44116;50.884;4.768;2023-07-13T05:09:40;101140.0;;;15.8
58307;BMP280;44116;50.884;4.768;2023-07-13T05:13:39;101150.0;;;15.9
58307;BMP280;44116;50.884;4.768;2023-07-13T05:15:39;101150.0;;;16.0
58307;BMP280;44116;50.884;4.768;2023-07-13T05:21:39;101150.0;;;16.1
58307;BMP280;44116;50.884;4.768;2023-07-13T05:23:39;101150.0;;;16.0
58307;BMP280;44116;50.884;4.768;2023-07-13T05:25:39;101150.0;;;15.9
58307;BMP280;44116;50.884;4.768;2023-07-13T05:29:39;101150.0;;;15.9
58307;BMP280;44116;50.884;4.768;2023-07-13T05:33:39;101150.0;;;15.9
58307;BMP280;44116;50.884;4.768;2023-07-13T05:35:39;101150.0;;;16.4
58307;BMP280;44116;50.884;4.768;2023-07-13T05:37:39;101160.0;;;16.3
58307;BMP280;44116;50.884;4.768;2023-07-13T05:41:38;101160.0;;;16.5
58307;BMP280;44116;50.884;4.768;2023-07-13T05:43:38;101160.0;;;16.4
58307;BMP280;44116;50.884;4.768;2023-07-13T05:47:38;101160.0;;;16.6
58307;BMP280;44116;50.884;4.768;2023-07-13T05:49:38;101160.0;;;16.8
58307;BMP280;44116;50.884;4.768;2023-07-13T05:51:38;101170.0;;;16.9
58307;BMP280;44116;50.884;4.768;2023-07-13T05:53:38;101170.0;;;17.0
58307;BMP280;44116;50.884;4.768;2023-07-13T05:55:40;101170.0;;;17.1
58307;BMP280;44116;50.884;4.768;2023-07-13T05:57:38;101180.0;;;17.1
58307;BMP280;44116;50.884;4.768;2023-07-13T05:59:38;101180.0;;;17.1
58307;BMP280;44116;50.884;4.768;2023-07-13T06:01:38;101180.0;;;16.7
58307;BMP280;44116;50.884;4.768;2023-07-13T06:03:38;101180.0;;;16.8
58307;BMP280;44116;50.884;4.768;2023-07-13T06:09:38;101190.0;;;17.0
58307;BMP280;44116;50.884;4.768;2023-07-13T06:11:37;101200.0;;;17.1
58307;BMP280;44116;50.884;4.768;2023-07-13T06:13:38;101190.0;;;16.9
58307;BMP280;44116;50.884;4.768;2023-07-13T06:15:37;101190.0;;;17.0
58307;BMP280;44116;50.884;4.768;2023-07-13T06:17:37;101210.0;;;17.1
58307;BMP280;44116;50.884;4.768;2023-07-13T06:19:37;101200.0;;;17.1
58307;BMP280;44116;50.884;4.768;2023-07-13T06:21:37;101210.0;;;17.2
58307;BMP280;44116;50.884;4.768;2023-07-13T06:25:37;101210.0;;;17.1
58307;BMP280;44116;50.884;4.768;2023-07-13T06:27:37;101210.0;;;16.9
58307;BMP280;44116;50.884;4.768;2023-07-13T06:29:37;101210.0;;;17.2
58307;BMP280;44116;50.884;4.768;2023-07-13T06:31:37;101210.0;;;17.4
58307;BMP280;44116;50.884;4.768;2023-07-13T06:33:37;101210.0;;;17.3
58307;BMP280;44116;50.884;4.768;2023-07-13T06:37:37;101220.0;;;17.3
58307;BMP280;44116;50.884;4.768;2023-07-13T06:39:37;101230.0;;;17.4
58307;BMP280;44116;50.884;4.768;2023-07-13T06:41:37;101220.0;;;17.4
58307;BMP280;44116;50.884;4.768;2023-07-13T06:43:37;101220.0;;;17.5
58307;BMP280;44116;50.884;4.768;2023-07-13T06:45:40;101230.0;;;17.6
58307;BMP280;44116;50.884;4.768;2023-07-13T06:47:37;101230.0;;;17.4
58307;BMP280;44116;50.884;4.768;2023-07-13T06:49:37;101230.0;;;17.5
58307;BMP280;44116;50.884;4.768;2023-07-13T06:51:37;101230.0;;;17.6
58307;BMP280;44116;50.884;4.768;2023-07-13T06:53:37;101230.0;;;17.8
58307;BMP280;44116;50.884;4.768;2023-07-13T06:57:37;101240.0;;;17.5
58307;BMP280;44116;50.884;4.768;2023-07-13T06:59:36;101230.0;;;17.7
58307;BMP280;44116;50.884;4.768;2023-07-13T07:01:36;101230.0;;;17.9
58307;BMP280;44116;50.884;4.768;2023-07-13T07:03:36;101230.0;;;18.0
58307;BMP280;44116;50.884;4.768;2023-07-13T07:09:36;101240.0;;;18.5
58307;BMP280;44116;50.884;4.768;2023-07-13T07:11:36;101240.0;;;18.7
58307;BMP280;44116;50.884;4.768;2023-07-13T07:13:36;101240.0;;;18.7
58307;BMP280;44116;50.884;4.768;2023-07-13T07:15:36;101240.0;;;18.2
58307;BMP280;44116;50.884;4.768;2023-07-13T07:17:36;101240.0;;;18.6
58307;BMP280;44116;50.884;4.768;2023-07-13T07:19:37;101240.0;;;18.8
58307;BMP280;44116;50.884;4.768;2023-07-13T07:21:36;101240.0;;;18.9
58307;BMP280;44116;50.884;4.768;2023-07-13T07:23:36;101240.0;;;19.0
58307;BMP280;44116;50.884;4.768;2023-07-13T07:25:36;101240.0;;;19.1
58307;BMP280;44116;50.884;4.768;2023-07-13T07:27:36;101250.0;;;19.0
58307;BMP280;44116;50.884;4.768;2023-07-13T07:29:36;101250.0;;;19.1
58307;BMP280;44116;50.884;4.768;2023-07-13T07:31:36;101250.0;;;19.2
58307;BMP280;44116;50.884;4.768;2023-07-13T07:33:36;101250.0;;;19.1
58307;BMP280;44116;50.884;4.768;2023-07-13T07:35:36;101250.0;;;19.2
58307;BMP280;44116;50.884;4.768;2023-07-13T07:37:36;101250.0;;;18.6
58307;BMP280;44116;50.884;4.768;2023-07-13T07:39:36;101250.0;;;19.2
58307;BMP280;44116;50.884;4.768;2023-07-13T07:41:36;101250.0;;;19.8
58307;BMP280;44116;50.884;4.768;2023-07-13T07:43:36;101260.0;;;20.2
58307;BMP280;44116;50.884;4.768;2023-07-13T07:45:37;101250.0;;;20.3
58307;BMP280;44116;50.884;4.768;2023-07-13T07:47:36;101260.0;;;20.2
58307;BMP280;44116;50.884;4.768;2023-07-13T07:49:37;101260.0;;;20.4
58307;BMP280;44116;50.884;4.768;2023-07-13T07:53:36;101260.0;;;20.0
58307;BMP280;44116;50.884;4.768;2023-07-13T07:55:59;101260.0;;;19.9
58307;BMP280;44116;50.884;4.768;2023-07-13T07:57:36;101260.0;;;20.0
58307;BMP280;44116;50.884;4.768;2023-07-13T07:59:36;101270.0;;;20.0
58307;BMP280;44116;50.884;4.768;2023-07-13T08:01:36;101270.0;;;19.8
58307;BMP280;44116;50.884;4.768;2023-07-13T08:03:36;101270.0;;;19.9
58307;BMP280;44116;50.884;4.768;2023-07-13T08:05:36;101270.0;;;20.5
58307;BMP280;44116;50.884;4.768;2023-07-13T08:07:37;101270.0;;;19.7
58307;BMP280;44116;50.884;4.768;2023-07-13T08:09:36;101270.0;;;20.1
58307;BMP280;44116;50.884;4.768;2023-07-13T08:11:36;101270.0;;;20.4
58307;BMP280;44116;50.884;4.768;2023-07-13T08:13:36;101270.0;;;20.5
58307;BMP280;44116;50.884;4.768;2023-07-13T08:17:36;101270.0;;;20.2
58307;BMP280;44116;50.884;4.768;2023-07-13T08:19:36;101270.0;;;20.2
58307;BMP280;44116;50.884;4.768;2023-07-13T08:23:36;101270.0;;;20.5
58307;BMP280;44116;50.884;4.768;2023-07-13T08:25:37;101270.0;;;20.0
58307;BMP280;44116;50.884;4.768;2023-07-13T08:27:37;101270.0;;;20.5
58307;BMP280;44116;50.884;4.768;2023-07-13T08:29:37;101270.0;;;20.5
58307;BMP280;44116;50.884;4.768;2023-07-13T08:33:37;101270.0;;;21.0
58307;BMP280;44116;50.884;4.768;2023-07-13T08:35:37;101270.0;;;21.0
58307;BMP280;44116;50.884;4.768;2023-07-13T08:37:37;101280.0;;;20.6
58307;BMP280;44116;50.884;4.768;2023-07-13T08:39:37;101280.0;;;20.7
58307;BMP280;44116;50.884;4.768;2023-07-13T08:43:37;101280.0;;;21.1
58307;BMP280;44116;50.884;4.768;2023-07-13T08:47:47;101270.0;;;20.7
58307;BMP280;44116;50.884;4.768;2023-07-13T08:49:37;101270.0;;;20.7
58307;BMP280;44116;50.884;4.768;2023-07-13T08:51:40;101270.0;;;20.4
58307;BMP280;44116;50.884;4.768;2023-07-13T08:55:37;101270.0;;;21.0
58307;BMP280;44116;50.884;4.768;2023-07-13T08:57:37;101280.0;;;21.6
58307;BMP280;44116;50.884;4.768;2023-07-13T09:01:43;101280.0;;;21.0
58307;BMP280;44116;50.884;4.768;2023-07-13T09:03:40;101270.0;;;20.4
58307;BMP280;44116;50.884;4.768;2023-07-13T09:05:38;101280.0;;;20.9
58307;BMP280;44116;50.884;4.768;2023-07-13T09:07:40;101280.0;;;21.6
58307;BMP280;44116;50.884;4.768;2023-07-13T09:09:40;101280.0;;;22.1
58307;BMP280;44116;50.884;4.768;2023-07-13T09:11:42;101280.0;;;21.6
58307;BMP280;44116;50.884;4.768;2023-07-13T09:13:40;101280.0;;;21.8
58307;BMP280;44116;50.884;4.768;2023-07-13T09:15:39;101280.0;;;21.8
58307;BMP280;44116;50.884;4.768;2023-07-13T09:17:40;101270.0;;;21.6
58307;BMP280;44116;50.884;4.768;2023-07-13T09:19:38;101270.0;;;21.5
58307;BMP280;44116;50.884;4.768;2023-07-13T09:23:38;101270.0;;;20.6
58307;BMP280;44116;50.884;4.768;2023-07-13T09:25:38;101270.0;;;20.0
58307;BMP280;44116;50.884;4.768;2023-07-13T09:27:38;101270.0;;;20.0
58307;BMP280;44116;50.884;4.768;2023-07-13T09:29:38;101270.0;;;20.8
58307;BMP280;44116;50.884;4.768;2023-07-13T09:31:39;101260.0;;;21.0
58307;BMP280;44116;50.884;4.768;2023-07-13T09:33:38;101270.0;;;21.3
58307;BMP280;44116;50.884;4.768;2023-07-13T09:35:38;101280.0;;;22.2
58307;BMP280;44116;50.884;4.768;2023-07-13T09:39:39;101270.0;;;22.3
58307;BMP280;44116;50.884;4.768;2023-07-13T09:41:40;101270.0;;;22.0
58307;BMP280;44116;50.884;4.768;2023-07-13T09:43:38;101270.0;;;22.2
58307;BMP280;44116;50.884;4.768;2023-07-13T09:45:38;101280.0;;;22.3
58307;BMP280;44116;50.884;4.768;2023-07-13T09:47:39;101270.0;;;22.5
58307;BMP280;44116;50.884;4.768;2023-07-13T09:49:38;101260.0;;;23.0
58307;BMP280;44116;50.884;4.768;2023-07-13T09:51:40;101270.0;;;23.5
58307;BMP280;44116;50.884;4.768;2023-07-13T09:53:39;101270.0;;;22.6
58307;BMP280;44116;50.884;4.768;2023-07-13T09:55:39;101280.0;;;22.4
58307;BMP280;44116;50.884;4.768;2023-07-13T10:01:39;101270.0;;;23.1
58307;BMP280;44116;50.884;4.768;2023-07-13T10:03:39;101280.0;;;22.8
58307;BMP280;44116;50.884;4.768;2023-07-13T10:05:40;101280.0;;;22.8
58307;BMP280;44116;50.884;4.768;2023-07-13T10:07:40;101280.0;;;23.4
58307;BMP280;44116;50.884;4.768;2023-07-13T10:09:39;101280.0;;;23.5
58307;BMP280;44116;50.884;4.768;2023-07-13T10:15:39;101270.0;;;22.7
58307;BMP280;44116;50.884;4.768;2023-07-13T10:17:40;101270.0;;;23.2
58307;BMP280;44116;50.884;4.768;2023-07-13T10:19:40;101270.0;;;23.2
58307;BMP280;44116;50.884;4.768;2023-07-13T10:23:40;101280.0;;;24.1
58307;BMP280;44116;50.884;4.768;2023-07-13T10:25:41;101280.0;;;23.2
58307;BMP280;44116;50.884;4.768;2023-07-13T10:27:40;101290.0;;;23.2
58307;BMP280;44116;50.884;4.768;2023-07-13T10:29:42;101290.0;;;22.9
58307;BMP280;44116;50.884;4.768;2023-07-13T10:31:40;101290.0;;;22.7
58307;BMP280;44116;50.884;4.768;2023-07-13T10:33:40;101280.0;;;23.3
58307;BMP280;44116;50.884;4.768;2023-07-13T10:35:42;101280.0;;;23.5
58307;BMP280;44116;50.884;4.768;2023-07-13T10:39:41;101280.0;;;22.8
58307;BMP280;44116;50.884;4.768;2023-07-13T10:41:41;101280.0;;;23.1
58307;BMP280;44116;50.884;4.768;2023-07-13T10:45:41;101280.0;;;23.1
58307;BMP280;44116;50.884;4.768;2023-07-13T10:47:41;101280.0;;;23.0
58307;BMP280;44116;50.884;4.768;2023-07-13T10:49:41;101280.0;;;23.3
58307;BMP280;44116;50.884;4.768;2023-07-13T10:51:41;101280.0;;;23.7
58307;BMP280;44116;50.884;4.768;2023-07-13T10:53:41;101280.0;;;24.0
58307;BMP280;44116;50.884;4.768;2023-07-13T10:55:54;101290.0;;;23.7
58307;BMP280;44116;50.884;4.768;2023-07-13T10:57:42;101280.0;;;24.1
58307;BMP280;44116;50.884;4.768;2023-07-13T10:59:42;101280.0;;;24.5
58307;BMP280;44116;50.884;4.768;2023-07-13T11:01:48;101290.0;;;24.1
58307;BMP280;44116;50.884;4.768;2023-07-13T11:03:47;101290.0;;;24.7
58307;BMP280;44116;50.884;4.768;2023-07-13T11:05:42;101280.0;;;24.6
58307;BMP280;44116;50.884;4.768;2023-07-13T11:07:51;101280.0;;;24.3
58307;BMP280;44116;50.884;4.768;2023-07-13T11:09:42;101280.0;;;23.9
58307;BMP280;44116;50.884;4.768;2023-07-13T11:11:42;101270.0;;;24.0
58307;BMP280;44116;50.884;4.768;2023-07-13T11:15:43;101270.0;;;23.9
58307;BMP280;44116;50.884;4.768;2023-07-13T11:17:47;101270.0;;;23.8
58307;BMP280;44116;50.884;4.768;2023-07-13T11:19:43;101270.0;;;24.1
58307;BMP280;44116;50.884;4.768;2023-07-13T11:23:44;101270.0;;;24.0
58307;BMP280;44116;50.884;4.768;2023-07-13T11:25:44;101270.0;;;24.1
58307;BMP280;44116;50.884;4.768;2023-07-13T11:27:45;101290.0;;;24.0
58307;BMP280;44116;50.884;4.768;2023-07-13T11:29:44;101280.0;;;23.5
58307;BMP280;44116;50.884;4.768;2023-07-13T11:31:46;101270.0;;;23.1
58307;BMP280;44116;50.884;4.768;2023-07-13T11:33:49;101270.0;;;23.3
58307;BMP280;44116;50.884;4.768;2023-07-13T11:37:44;101260.0;;;23.3
58307;BMP280;44116;50.884;4.768;2023-07-13T11:39:44;101270.0;;;22.8
58307;BMP280;44116;50.884;4.768;2023-07-13T11:41:45;101270.0;;;23.0
58307;BMP280;44116;50.884;4.768;2023-07-13T11:47:45;101270.0;;;23.3
58307;BMP280;44116;50.884;4.768;2023-07-13T11:49:47;101280.0;;;23.5
58307;BMP280;44116;50.884;4.768;2023-07-13T11:53:46;101280.0;;;24.5
58307;BMP280;44116;50.884;4.768;2023-07-13T11:55:45;101280.0;;;24.2
58307;BMP280;44116;50.884;4.768;2023-07-13T11:57:47;101290.0;;;24.6
58307;BMP280;44116;50.884;4.768;2023-07-13T12:01:46;101280.0;;;23.6
58307;BMP280;44116;50.884;4.768;2023-07-13T12:03:46;101270.0;;;24.0
58307;BMP280;44116;50.884;4.768;2023-07-13T12:07:46;101270.0;;;24.4
58307;BMP280;44116;50.884;4.768;2023-07-13T12:13:47;101260.0;;;23.0
58307;BMP280;44116;50.884;4.768;2023-07-13T12:17:47;101280.0;;;22.8
58307;BMP280;44116;50.884;4.768;2023-07-13T12:21:47;101280.0;;;22.7
58307;BMP280;44116;50.884;4.768;2023-07-13T12:23:48;101280.0;;;22.4
58307;BMP280;44116;50.884;4.768;2023-07-13T12:25:47;101280.0;;;22.6
58307;BMP280;44116;50.884;4.768;2023-07-13T12:27:47;101290.0;;;22.6
58307;BMP280;44116;50.884;4.768;2023-07-13T12:29:49;101290.0;;;22.4
58307;BMP280;44116;50.884;4.768;2023-07-13T12:33:48;101290.0;;;22.3
58307;BMP280;44116;50.884;4.768;2023-07-13T12:35:49;101290.0;;;22.7
58307;BMP280;44116;50.884;4.768;2023-07-13T12:37:48;101290.0;;;22.3
58307;BMP280;44116;50.884;4.768;2023-07-13T12:39:48;101290.0;;;22.4
58307;BMP280;44116;50.884;4.768;2023-07-13T12:41:48;101290.0;;;22.6
58307;BMP280;44116;50.884;4.768;2023-07-13T12:43:48;101290.0;;;22.4
58307;BMP280;44116;50.884;4.768;2023-07-13T12:45:56;101290.0;;;22.1
58307;BMP280;44116;50.884;4.768;2023-07-13T12:49:50;101300.0;;;22.0
58307;BMP280;44116;50.884;4.768;2023-07-13T12:51:49;101310.0;;;22.0
58307;BMP280;44116;50.884;4.768;2023-07-13T12:53:49;101310.0;;;21.7
58307;BMP280;44116;50.884;4.768;2023-07-13T12:55:50;101320.0;;;21.5
58307;BMP280;44116;50.884;4.768;2023-07-13T12:57:50;101340.0;;;20.5
58307;BMP280;44116;50.884;4.768;2023-07-13T12:59:51;101350.0;;;21.0
58307;BMP280;44116;50.884;4.768;2023-07-13T13:01:49;101360.0;;;20.2
58307;BMP280;44116;50.884;4.768;2023-07-13T13:03:50;101360.0;;;19.9
58307;BMP280;44116;50.884;4.768;2023-07-13T13:07:49;101370.0;;;19.9
58307;BMP280;44116;50.884;4.768;2023-07-13T13:09:50;101370.0;;;20.7
58307;BMP280;44116;50.884;4.768;2023-07-13T13:11:49;101370.0;;;19.8
58307;BMP280;44116;50.884;4.768;2023-07-13T13:13:50;101370.0;;;20.0
58307;BMP280;44116;50.884;4.768;2023-07-13T13:15:50;101360.0;;;19.8
58307;BMP280;44116;50.884;4.768;2023-07-13T13:17:50;101360.0;;;19.4
58307;BMP280;44116;50.884;4.768;2023-07-13T13:19:50;101360.0;;;19.1
58307;BMP280;44116;50.884;4.768;2023-07-13T13:25:50;101150.0;;;20.3
58307;BMP280;44116;50.884;4.768;2023-07-13T13:27:50;101260.0;;;20.8
58307;BMP280;44116;50.884;4.768;2023-07-13T13:29:50;101330.0;;;20.0
58307;BMP280;44116;50.884;4.768;2023-07-13T13:31:50;101340.0;;;19.2
58307;BMP280;44116;50.884;4.768;2023-07-13T13:33:50;101340.0;;;20.0
58307;BMP280;44116;50.884;4.768;2023-07-13T13:35:50;101350.0;;;19.4
58307;BMP280;44116;50.884;4.768;2023-07-13T13:41:51;101340.0;;;19.4
58307;BMP280;44116;50.884;4.768;2023-07-13T13:43:50;101340.0;;;19.7
58307;BMP280;44116;50.884;4.768;2023-07-13T13:47:50;101340.0;;;19.7
58307;BMP280;44116;50.884;4.768;2023-07-13T13:49:50;101340.0;;;19.7
58307;BMP280;44116;50.884;4.768;2023-07-13T13:51:51;101340.0;;;20.5
58307;BMP280;44116;50.884;4.768;2023-07-13T13:53:50;101340.0;;;20.8
58307;BMP280;44116;50.884;4.768;2023-07-13T13:57:51;101340.0;;;21.3
58307;BMP280;44116;50.884;4.768;2023-07-13T14:01:51;101340.0;;;21.9
58307;BMP280;44116;50.884;4.768;2023-07-13T14:03:51;101340.0;;;20.6
58307;BMP280;44116;50.884;4.768;2023-07-13T14:05:51;101350.0;;;20.7
58307;BMP280;44116;50.884;4.768;2023-07-13T14:07:51;101340.0;;;20.9
58307;BMP280;44116;50.884;4.768;2023-07-13T14:09:51;101330.0;;;20.5
58307;BMP280;44116;50.884;4.768;2023-07-13T14:11:51;101340.0;;;20.7
58307;BMP280;44116;50.884;4.768;2023-07-13T14:13:52;101330.0;;;20.7
58307;BMP280;44116;50.884;4.768;2023-07-13T14:15:51;101330.0;;;20.9
58307;BMP280;44116;50.884;4.768;2023-07-13T14:17:51;101330.0;;;21.5